sensor_id;sensor_type;location;lat;lon;timestamp;temperature;humidity
43049;DHT22;28673;44.412;11.918;2023-02-15T00:00:14;4.80;99.90
43049;DHT22;28673;44.412;11.918;2023-02-15T00:06:03;4.80;99.90
43049;DHT22;28673;44.412;11.918;2023-02-15T00:11:32;4.80;99.90
43049;DHT22;28673;44.412;11.918;2023-02-15T00:14:27;4.80;99.90
43049;DHT22;28673;44.412;11.918;2023-02-15T00:16:53;4.80;99.90
43049;DHT22;28673;44.412;11.918;2023-02-15T00:19:21;4.80;99.90
43049;DHT22;28673;44.412;11.918;2023-02-15T00:22:06;4.70;99.90
43049;DHT22;28673;44.412;11.918;2023-02-15T00:30:20;4.70;99.90
43049;DHT22;28673;44.412;11.918;2023-02-15T00:32:47;4.70;99.90
43049;DHT22;28673;44.412;11.918;2023-02-15T00:35:13;4.70;99.90
43049;DHT22;28673;44.412;11.918;2023-02-15T00:37:39;4.70;99.90
43049;DHT22;28673;44.412;11.918;2023-02-15T00:40:24;4.60;99.90
43049;DHT22;28673;44.412;11.918;2023-02-15T00:42:50;4.60;99.90
43049;DHT22;28673;44.412;11.918;2023-02-15T00:48:19;4.60;99.90
43049;DHT22;28673;44.412;11.918;2023-02-15T00:53:49;4.50;99.90
43049;DHT22;28673;44.412;11.918;2023-02-15T00:56:34;4.50;99.90
43049;DHT22;28673;44.412;11.918;2023-02-15T00:59:00;4.50;99.90
43049;DHT22;28673;44.412;11.918;2023-02-15T01:01:26;4.50;99.90
43049;DHT22;28673;44.412;11.918;2023-02-15T01:03:52;4.40;99.90
43049;DHT22;28673;44.412;11.918;2023-02-15T01:06:18;4.40;99.90
43049;DHT22;28673;44.412;11.918;2023-02-15T01:08:45;4.40;99.90
43049;DHT22;28673;44.412;11.918;2023-02-15T01:11:30;4.40;99.90
43049;DHT22;28673;44.412;11.918;2023-02-15T01:13:57;4.40;99.90
43049;DHT22;28673;44.412;11.918;2023-02-15T01:16:25;4.40;99.90
43049;DHT22;28673;44.412;11.918;2023-02-15T01:18:52;4.40;99.90
43049;DHT22;28673;44.412;11.918;2023-02-15T01:21:22;4.30;99.90
43049;DHT22;28673;44.412;11.918;2023-02-15T01:24:13;4.30;99.90
43049;DHT22;28673;44.412;11.918;2023-02-15T01:29:26;4.30;99.90
43049;DHT22;28673;44.412;11.918;2023-02-15T01:32:11;4.30;99.90
43049;DHT22;28673;44.412;11.918;2023-02-15T01:34:37;4.20;99.90
43049;DHT22;28673;44.412;11.918;2023-02-15T01:39:48;4.20;99.90
43049;DHT22;28673;44.412;11.918;2023-02-15T01:42:21;4.20;99.90
43049;DHT22;28673;44.412;11.918;2023-02-15T01:45:00;4.20;99.90
43049;DHT22;28673;44.412;11.918;2023-02-15T01:50:44;4.10;99.90
43049;DHT22;28673;44.412;11.918;2023-02-15T01:53:18;4.10;99.90
43049;DHT22;28673;44.412;11.918;2023-02-15T01:55:50;4.10;99.90
43049;DHT22;28673;44.412;11.918;2023-02-15T01:58:18;4.10;99.90
43049;DHT22;28673;44.412;11.918;2023-02-15T02:00:45;4.00;99.90
43049;DHT22;28673;44.412;11.918;2023-02-15T02:03:11;4.00;99.90
43049;DHT22;28673;44.412;11.918;2023-02-15T02:05:39;4.00;99.90
43049;DHT22;28673;44.412;11.918;2023-02-15T02:08:05;4.00;99.90
43049;DHT22;28673;44.412;11.918;2023-02-15T02:10:32;3.90;99.90
43049;DHT22;28673;44.412;11.918;2023-02-15T02:13:02;3.90;99.90
43049;DHT22;28673;44.412;11.918;2023-02-15T02:15:47;3.90;99.90
43049;DHT22;28673;44.412;11.918;2023-02-15T02:40:55;3.70;99.90
43049;DHT22;28673;44.412;11.918;2023-02-15T02:43:50;3.60;99.90
43049;DHT22;28673;44.412;11.918;2023-02-15T02:46:54;3.60;99.90
43049;DHT22;28673;44.412;11.918;2023-02-15T02:49:39;3.50;99.90
43049;DHT22;28673;44.412;11.918;2023-02-15T02:55:21;3.50;99.90
43049;DHT22;28673;44.412;11.918;2023-02-15T03:00:22;3.50;99.90
43049;DHT22;28673;44.412;11.918;2023-02-15T03:03:16;3.50;99.90
43049;DHT22;28673;44.412;11.918;2023-02-15T03:06:15;3.50;99.90
43049;DHT22;28673;44.412;11.918;2023-02-15T03:09:12;3.50;99.90
43049;DHT22;28673;44.412;11.918;2023-02-15T03:12:20;3.40;99.90
43049;DHT22;28673;44.412;11.918;2023-02-15T03:17:57;3.40;99.90
43049;DHT22;28673;44.412;11.918;2023-02-15T03:20:31;3.40;99.90
43049;DHT22;28673;44.412;11.918;2023-02-15T03:23:10;3.40;99.90
43049;DHT22;28673;44.412;11.918;2023-02-15T03:25:50;3.30;99.90
43049;DHT22;28673;44.412;11.918;2023-02-15T03:33:59;3.40;99.90
43049;DHT22;28673;44.412;11.918;2023-02-15T03:39:23;3.40;99.90
43049;DHT22;28673;44.412;11.918;2023-02-15T03:42:13;3.40;99.90
43049;DHT22;28673;44.412;11.918;2023-02-15T03:45:08;3.40;99.90
43049;DHT22;28673;44.412;11.918;2023-02-15T03:47:56;3.30;99.90
43049;DHT22;28673;44.412;11.918;2023-02-15T03:50:35;3.40;99.90
43049;DHT22;28673;44.412;11.918;2023-02-15T03:53:22;3.40;99.90
43049;DHT22;28673;44.412;11.918;2023-02-15T03:55:50;3.30;99.90
43049;DHT22;28673;44.412;11.918;2023-02-15T03:58:18;3.30;99.90
43049;DHT22;28673;44.412;11.918;2023-02-15T04:04:36;3.30;99.90
43049;DHT22;28673;44.412;11.918;2023-02-15T04:07:05;3.30;99.90
43049;DHT22;28673;44.412;11.918;2023-02-15T04:09:31;3.30;99.90
43049;DHT22;28673;44.412;11.918;2023-02-15T04:12:15;3.30;99.90
43049;DHT22;28673;44.412;11.918;2023-02-15T04:14:41;3.30;99.90
43049;DHT22;28673;44.412;11.918;2023-02-15T04:17:26;3.20;99.90
43049;DHT22;28673;44.412;11.918;2023-02-15T04:19:52;3.20;99.90
43049;DHT22;28673;44.412;11.918;2023-02-15T04:22:55;3.20;99.90
43049;DHT22;28673;44.412;11.918;2023-02-15T04:25:58;3.20;99.90
43049;DHT22;28673;44.412;11.918;2023-02-15T04:28:24;3.20;99.90
43049;DHT22;28673;44.412;11.918;2023-02-15T04:31:46;3.20;99.90
43049;DHT22;28673;44.412;11.918;2023-02-15T04:34:12;3.20;99.90
43049;DHT22;28673;44.412;11.918;2023-02-15T04:36:39;3.20;99.90
43049;DHT22;28673;44.412;11.918;2023-02-15T04:39:24;3.20;99.90
43049;DHT22;28673;44.412;11.918;2023-02-15T04:42:08;3.10;99.90
43049;DHT22;28673;44.412;11.918;2023-02-15T04:44:34;3.20;99.90
43049;DHT22;28673;44.412;11.918;2023-02-15T04:47:37;3.10;99.90
43049;DHT22;28673;44.412;11.918;2023-02-15T04:50:03;3.20;99.90
43049;DHT22;28673;44.412;11.918;2023-02-15T04:55:51;3.10;99.90
43049;DHT22;28673;44.412;11.918;2023-02-15T05:01:38;3.10;99.90
43049;DHT22;28673;44.412;11.918;2023-02-15T05:06:49;3.10;99.90
43049;DHT22;28673;44.412;11.918;2023-02-15T05:09:16;3.10;99.90
43049;DHT22;28673;44.412;11.918;2023-02-15T05:11:42;3.00;99.90
43049;DHT22;28673;44.412;11.918;2023-02-15T05:14:08;3.00;99.90
43049;DHT22;28673;44.412;11.918;2023-02-15T05:16:52;3.00;99.90
43049;DHT22;28673;44.412;11.918;2023-02-15T05:22:04;3.00;99.90
43049;DHT22;28673;44.412;11.918;2023-02-15T05:24:30;2.90;99.90
43049;DHT22;28673;44.412;11.918;2023-02-15T05:27:14;2.90;99.90
43049;DHT22;28673;44.412;11.918;2023-02-15T05:29:58;2.90;99.90
43049;DHT22;28673;44.412;11.918;2023-02-15T05:32:24;2.90;99.90
43049;DHT22;28673;44.412;11.918;2023-02-15T05:37:53;2.80;99.90
43049;DHT22;28673;44.412;11.918;2023-02-15T05:40:19;2.80;99.90
43049;DHT22;28673;44.412;11.918;2023-02-15T05:42:45;2.80;99.90
43049;DHT22;28673;44.412;11.918;2023-02-15T05:45:10;2.80;99.90
43049;DHT22;28673;44.412;11.918;2023-02-15T05:47:36;2.80;99.90
43049;DHT22;28673;44.412;11.918;2023-02-15T05:50:21;2.70;99.90
43049;DHT22;28673;44.412;11.918;2023-02-15T05:52:47;2.70;99.90
43049;DHT22;28673;44.412;11.918;2023-02-15T05:55:31;2.70;99.90
43049;DHT22;28673;44.412;11.918;2023-02-15T05:57:57;2.70;99.90
43049;DHT22;28673;44.412;11.918;2023-02-15T06:00:41;2.60;99.90
43049;DHT22;28673;44.412;11.918;2023-02-15T06:03:07;2.60;99.90
43049;DHT22;28673;44.412;11.918;2023-02-15T06:05:33;2.50;99.90
43049;DHT22;28673;44.412;11.918;2023-02-15T06:07:59;2.50;99.90
43049;DHT22;28673;44.412;11.918;2023-02-15T06:10:25;2.40;99.90
43049;DHT22;28673;44.412;11.918;2023-02-15T06:12:50;2.40;99.90
43049;DHT22;28673;44.412;11.918;2023-02-15T06:15:16;2.40;99.90
43049;DHT22;28673;44.412;11.918;2023-02-15T06:17:42;2.40;99.90
43049;DHT22;28673;44.412;11.918;2023-02-15T06:20:27;2.40;99.90
43049;DHT22;28673;44.412;11.918;2023-02-15T06:22:53;2.50;99.90
43049;DHT22;28673;44.412;11.918;2023-02-15T06:25:19;2.50;99.90
43049;DHT22;28673;44.412;11.918;2023-02-15T06:27:45;2.40;99.90
43049;DHT22;28673;44.412;11.918;2023-02-15T06:30:12;2.40;99.90
43049;DHT22;28673;44.412;11.918;2023-02-15T06:32:38;2.40;99.90
43049;DHT22;28673;44.412;11.918;2023-02-15T06:35:04;2.40;99.90
43049;DHT22;28673;44.412;11.918;2023-02-15T06:37:30;2.40;99.90
43049;DHT22;28673;44.412;11.918;2023-02-15T06:39:55;2.40;99.90
43049;DHT22;28673;44.412;11.918;2023-02-15T06:42:22;2.40;99.90
43049;DHT22;28673;44.412;11.918;2023-02-15T06:45:07;2.40;99.90
43049;DHT22;28673;44.412;11.918;2023-02-15T06:47:33;2.50;99.90
43049;DHT22;28673;44.412;11.918;2023-02-15T06:50:17;2.50;99.90
43049;DHT22;28673;44.412;11.918;2023-02-15T06:53:02;2.50;99.90
43049;DHT22;28673;44.412;11.918;2023-02-15T06:55:28;2.50;99.90
43049;DHT22;28673;44.412;11.918;2023-02-15T06:58:13;2.40;99.90
43049;DHT22;28673;44.412;11.918;2023-02-15T07:00:38;2.50;99.90
43049;DHT22;28673;44.412;11.918;2023-02-15T07:03:04;2.50;99.90
43049;DHT22;28673;44.412;11.918;2023-02-15T07:05:33;2.50;99.90
43049;DHT22;28673;44.412;11.918;2023-02-15T07:08:00;2.50;99.90
43049;DHT22;28673;44.412;11.918;2023-02-15T07:10:27;2.50;99.90
43049;DHT22;28673;44.412;11.918;2023-02-15T07:12:53;2.60;99.90
43049;DHT22;28673;44.412;11.918;2023-02-15T07:15:19;2.50;99.90
43049;DHT22;28673;44.412;11.918;2023-02-15T07:17:47;2.60;99.90
43049;DHT22;28673;44.412;11.918;2023-02-15T07:20:17;2.60;99.90
43049;DHT22;28673;44.412;11.918;2023-02-15T07:22:44;2.60;99.90
43049;DHT22;28673;44.412;11.918;2023-02-15T07:25:11;2.70;99.90
43049;DHT22;28673;44.412;11.918;2023-02-15T07:28:14;2.70;99.90
43049;DHT22;28673;44.412;11.918;2023-02-15T07:30:41;2.70;99.90
43049;DHT22;28673;44.412;11.918;2023-02-15T07:33:07;2.70;99.90
43049;DHT22;28673;44.412;11.918;2023-02-15T07:35:55;2.80;99.90
43049;DHT22;28673;44.412;11.918;2023-02-15T07:38:25;2.90;99.90
43049;DHT22;28673;44.412;11.918;2023-02-15T07:41:07;3.00;99.90
43049;DHT22;28673;44.412;11.918;2023-02-15T07:43:35;3.00;99.90
43049;DHT22;28673;44.412;11.918;2023-02-15T07:46:05;3.20;99.90
43049;DHT22;28673;44.412;11.918;2023-02-15T07:51:34;3.40;99.90
43049;DHT22;28673;44.412;11.918;2023-02-15T07:54:00;3.50;99.90
43049;DHT22;28673;44.412;11.918;2023-02-15T07:56:25;3.70;99.90
43049;DHT22;28673;44.412;11.918;2023-02-15T07:59:10;3.80;99.90
43049;DHT22;28673;44.412;11.918;2023-02-15T08:01:37;3.90;99.90
43049;DHT22;28673;44.412;11.918;2023-02-15T08:07:07;4.20;99.90
43049;DHT22;28673;44.412;11.918;2023-02-15T08:09:33;4.30;99.90
43049;DHT22;28673;44.412;11.918;2023-02-15T08:11:59;4.40;99.90
43049;DHT22;28673;44.412;11.918;2023-02-15T08:19:56;4.80;99.90
43049;DHT22;28673;44.412;11.918;2023-02-15T08:25:09;5.10;99.90
43049;DHT22;28673;44.412;11.918;2023-02-15T08:27:35;5.30;99.90
43049;DHT22;28673;44.412;11.918;2023-02-15T08:35:49;5.70;99.90
43049;DHT22;28673;44.412;11.918;2023-02-15T08:38:15;5.90;99.90
43049;DHT22;28673;44.412;11.918;2023-02-15T08:40:41;6.00;99.90
43049;DHT22;28673;44.412;11.918;2023-02-15T08:43:07;6.10;99.90
43049;DHT22;28673;44.412;11.918;2023-02-15T08:45:51;6.30;99.90
43049;DHT22;28673;44.412;11.918;2023-02-15T08:48:17;6.40;99.90
43049;DHT22;28673;44.412;11.918;2023-02-15T08:51:13;6.60;99.90
43049;DHT22;28673;44.412;11.918;2023-02-15T08:53:40;6.80;99.90
43049;DHT22;28673;44.412;11.918;2023-02-15T08:56:07;6.90;99.90
43049;DHT22;28673;44.412;11.918;2023-02-15T08:58:33;7.10;99.90
43049;DHT22;28673;44.412;11.918;2023-02-15T09:01:00;7.30;99.90
43049;DHT22;28673;44.412;11.918;2023-02-15T09:03:28;7.40;99.90
43049;DHT22;28673;44.412;11.918;2023-02-15T09:05:58;7.60;99.90
43049;DHT22;28673;44.412;11.918;2023-02-15T09:08:25;7.70;99.90
43049;DHT22;28673;44.412;11.918;2023-02-15T09:13:37;8.00;99.90
43049;DHT22;28673;44.412;11.918;2023-02-15T09:16:06;8.10;99.90
43049;DHT22;28673;44.412;11.918;2023-02-15T09:18:36;8.30;99.90
43049;DHT22;28673;44.412;11.918;2023-02-15T09:24:00;8.50;99.90
43049;DHT22;28673;44.412;11.918;2023-02-15T09:26:28;8.70;99.90
43049;DHT22;28673;44.412;11.918;2023-02-15T09:28:56;8.80;99.90
43049;DHT22;28673;44.412;11.918;2023-02-15T09:31:26;9.00;99.90
43049;DHT22;28673;44.412;11.918;2023-02-15T09:33:52;9.20;99.90
43049;DHT22;28673;44.412;11.918;2023-02-15T09:36:25;9.30;99.90
43049;DHT22;28673;44.412;11.918;2023-02-15T09:39:25;9.50;99.90
43049;DHT22;28673;44.412;11.918;2023-02-15T09:48:07;10.10;99.90
43049;DHT22;28673;44.412;11.918;2023-02-15T09:56:52;10.80;99.60
43049;DHT22;28673;44.412;11.918;2023-02-15T10:05:36;11.80;99.10
43049;DHT22;28673;44.412;11.918;2023-02-15T10:28:48;14.20;95.70
43049;DHT22;28673;44.412;11.918;2023-02-15T10:35:19;14.70;94.90
43049;DHT22;28673;44.412;11.918;2023-02-15T10:49:00;15.80;92.90
43049;DHT22;28673;44.412;11.918;2023-02-15T10:54:51;16.20;94.00
43049;DHT22;28673;44.412;11.918;2023-02-15T10:57:35;16.40;93.50
43049;DHT22;28673;44.412;11.918;2023-02-15T11:00:27;16.50;93.60
43049;DHT22;28673;44.412;11.918;2023-02-15T11:08:54;16.80;92.40
43049;DHT22;28673;44.412;11.918;2023-02-15T11:11:40;16.90;92.90
43049;DHT22;28673;44.412;11.918;2023-02-15T11:17:04;17.00;92.40
43049;DHT22;28673;44.412;11.918;2023-02-15T11:23:12;17.20;91.30
43049;DHT22;28673;44.412;11.918;2023-02-15T11:25:43;17.30;92.00
43049;DHT22;28673;44.412;11.918;2023-02-15T11:28:22;17.40;91.80
43049;DHT22;28673;44.412;11.918;2023-02-15T11:31:34;17.40;91.60
43049;DHT22;28673;44.412;11.918;2023-02-15T11:34:06;17.50;91.20
43049;DHT22;28673;44.412;11.918;2023-02-15T11:36:40;17.70;91.40
43049;DHT22;28673;44.412;11.918;2023-02-15T11:39:44;17.80;91.00
43049;DHT22;28673;44.412;11.918;2023-02-15T11:42:35;17.80;90.00
43049;DHT22;28673;44.412;11.918;2023-02-15T11:47:44;17.90;89.50
43049;DHT22;28673;44.412;11.918;2023-02-15T11:50:32;18.00;90.50
43049;DHT22;28673;44.412;11.918;2023-02-15T11:53:01;18.20;90.10
43049;DHT22;28673;44.412;11.918;2023-02-15T11:55:29;18.30;89.20
43049;DHT22;28673;44.412;11.918;2023-02-15T11:58:27;18.40;89.20
43049;DHT22;28673;44.412;11.918;2023-02-15T12:01:35;18.50;88.90
43049;DHT22;28673;44.412;11.918;2023-02-15T12:04:29;18.60;86.60
43049;DHT22;28673;44.412;11.918;2023-02-15T12:07:49;18.80;87.30
43049;DHT22;28673;44.412;11.918;2023-02-15T12:10:19;18.80;83.60
43049;DHT22;28673;44.412;11.918;2023-02-15T12:12:47;18.80;87.30
43049;DHT22;28673;44.412;11.918;2023-02-15T12:15:32;18.90;87.80
43049;DHT22;28673;44.412;11.918;2023-02-15T12:18:00;19.00;83.20
43049;DHT22;28673;44.412;11.918;2023-02-15T12:20:32;18.90;83.10
43049;DHT22;28673;44.412;11.918;2023-02-15T12:25:54;19.10;85.30
43049;DHT22;28673;44.412;11.918;2023-02-15T12:30:47;19.50;84.70
43049;DHT22;28673;44.412;11.918;2023-02-15T12:33:50;19.60;84.40
43049;DHT22;28673;44.412;11.918;2023-02-15T12:36:21;19.60;83.00
43049;DHT22;28673;44.412;11.918;2023-02-15T12:41:37;19.90;83.40
43049;DHT22;28673;44.412;11.918;2023-02-15T12:44:52;19.90;84.00
43049;DHT22;28673;44.412;11.918;2023-02-15T12:47:19;20.10;83.60
43049;DHT22;28673;44.412;11.918;2023-02-15T12:50:15;20.30;83.40
43049;DHT22;28673;44.412;11.918;2023-02-15T12:52:49;20.30;82.90
43049;DHT22;28673;44.412;11.918;2023-02-15T13:01:18;20.50;80.20
43049;DHT22;28673;44.412;11.918;2023-02-15T13:03:56;20.40;80.90
43049;DHT22;28673;44.412;11.918;2023-02-15T13:06:23;20.40;80.90
43049;DHT22;28673;44.412;11.918;2023-02-15T13:08:58;20.30;81.30
43049;DHT22;28673;44.412;11.918;2023-02-15T13:11:31;20.30;80.70
43049;DHT22;28673;44.412;11.918;2023-02-15T13:16:48;20.40;81.60
43049;DHT22;28673;44.412;11.918;2023-02-15T13:19:49;20.40;79.60
43049;DHT22;28673;44.412;11.918;2023-02-15T13:23:01;20.30;79.70
43049;DHT22;28673;44.412;11.918;2023-02-15T13:25:25;20.30;78.60
43049;DHT22;28673;44.412;11.918;2023-02-15T13:27:57;20.30;80.70
43049;DHT22;28673;44.412;11.918;2023-02-15T13:30:35;20.30;80.30
43049;DHT22;28673;44.412;11.918;2023-02-15T13:33:08;20.40;79.70
43049;DHT22;28673;44.412;11.918;2023-02-15T13:41:20;20.40;79.60
43049;DHT22;28673;44.412;11.918;2023-02-15T13:55:47;20.30;78.60
43049;DHT22;28673;44.412;11.918;2023-02-15T14:02:04;20.40;78.90
43049;DHT22;28673;44.412;11.918;2023-02-15T14:15:53;20.50;77.70
43049;DHT22;28673;44.412;11.918;2023-02-15T14:18:26;20.50;76.90
43049;DHT22;28673;44.412;11.918;2023-02-15T14:21:15;20.40;76.00
43049;DHT22;28673;44.412;11.918;2023-02-15T14:29:59;20.30;77.50
43049;DHT22;28673;44.412;11.918;2023-02-15T14:32:41;20.30;76.90
43049;DHT22;28673;44.412;11.918;2023-02-15T14:35:20;20.30;77.00
43049;DHT22;28673;44.412;11.918;2023-02-15T14:46:45;20.30;77.50
43049;DHT22;28673;44.412;11.918;2023-02-15T14:49:40;20.30;77.30
43049;DHT22;28673;44.412;11.918;2023-02-15T14:52:08;20.40;77.20
43049;DHT22;28673;44.412;11.918;2023-02-15T14:54:55;20.40;77.60
43049;DHT22;28673;44.412;11.918;2023-02-15T14:57:23;20.40;76.70
43049;DHT22;28673;44.412;11.918;2023-02-15T14:59:54;20.30;77.60
43049;DHT22;28673;44.412;11.918;2023-02-15T15:02:48;20.30;77.70
43049;DHT22;28673;44.412;11.918;2023-02-15T15:05:33;20.20;76.90
43049;DHT22;28673;44.412;11.918;2023-02-15T15:08:29;20.10;76.00
43049;DHT22;28673;44.412;11.918;2023-02-15T15:14:00;20.10;76.80
43049;DHT22;28673;44.412;11.918;2023-02-15T15:16:30;20.10;77.60
43049;DHT22;28673;44.412;11.918;2023-02-15T15:21:56;20.10;78.20
43049;DHT22;28673;44.412;11.918;2023-02-15T15:27:42;20.00;77.10
43049;DHT22;28673;44.412;11.918;2023-02-15T15:36:39;19.80;77.00
43049;DHT22;28673;44.412;11.918;2023-02-15T15:42:01;19.60;77.40
43049;DHT22;28673;44.412;11.918;2023-02-15T15:47:49;19.50;77.40
43049;DHT22;28673;44.412;11.918;2023-02-15T15:50:19;19.40;77.30
43049;DHT22;28673;44.412;11.918;2023-02-15T15:53:04;19.30;77.70
43049;DHT22;28673;44.412;11.918;2023-02-15T15:55:33;19.10;77.20
43049;DHT22;28673;44.412;11.918;2023-02-15T15:58:03;18.90;77.60
43049;DHT22;28673;44.412;11.918;2023-02-15T16:03:05;18.60;78.00
43049;DHT22;28673;44.412;11.918;2023-02-15T16:05:50;18.40;78.00
43049;DHT22;28673;44.412;11.918;2023-02-15T16:08:33;18.20;78.10
43049;DHT22;28673;44.412;11.918;2023-02-15T16:14:19;17.80;78.50
43049;DHT22;28673;44.412;11.918;2023-02-15T16:19:59;17.40;78.70
43049;DHT22;28673;44.412;11.918;2023-02-15T16:22:26;17.10;79.00
43049;DHT22;28673;44.412;11.918;2023-02-15T16:28:13;16.70;79.70
43049;DHT22;28673;44.412;11.918;2023-02-15T16:30:40;16.60;80.20
43049;DHT22;28673;44.412;11.918;2023-02-15T16:35:52;16.20;80.30
43049;DHT22;28673;44.412;11.918;2023-02-15T16:41:30;15.80;81.10
43049;DHT22;28673;44.412;11.918;2023-02-15T16:44:17;15.60;81.50
43049;DHT22;28673;44.412;11.918;2023-02-15T16:46:48;15.40;81.90
43049;DHT22;28673;44.412;11.918;2023-02-15T16:54:47;14.90;83.00
43049;DHT22;28673;44.412;11.918;2023-02-15T16:57:20;14.70;83.70
43049;DHT22;28673;44.412;11.918;2023-02-15T16:59:49;14.60;84.00
43049;DHT22;28673;44.412;11.918;2023-02-15T17:02:27;14.40;84.00
43049;DHT22;28673;44.412;11.918;2023-02-15T17:16:50;13.50;86.30
43049;DHT22;28673;44.412;11.918;2023-02-15T17:19:29;13.30;86.40
43049;DHT22;28673;44.412;11.918;2023-02-15T17:22:33;13.20;86.90
43049;DHT22;28673;44.412;11.918;2023-02-15T17:28:27;12.80;88.20
43049;DHT22;28673;44.412;11.918;2023-02-15T17:33:58;12.50;89.20
43049;DHT22;28673;44.412;11.918;2023-02-15T17:36:56;12.30;89.90
43049;DHT22;28673;44.412;11.918;2023-02-15T17:42:26;12.10;90.00
43049;DHT22;28673;44.412;11.918;2023-02-15T17:44:52;12.10;90.00
43049;DHT22;28673;44.412;11.918;2023-02-15T17:47:36;11.90;90.30
43049;DHT22;28673;44.412;11.918;2023-02-15T17:50:04;11.90;90.60
43049;DHT22;28673;44.412;11.918;2023-02-15T17:52:31;11.80;90.90
43049;DHT22;28673;44.412;11.918;2023-02-15T17:54:57;11.70;91.20
43049;DHT22;28673;44.412;11.918;2023-02-15T17:57:42;11.60;91.20
43049;DHT22;28673;44.412;11.918;2023-02-15T18:00:12;11.50;91.20
43049;DHT22;28673;44.412;11.918;2023-02-15T18:03:16;11.40;91.30
43049;DHT22;28673;44.412;11.918;2023-02-15T18:06:19;11.30;91.60
43049;DHT22;28673;44.412;11.918;2023-02-15T18:15:12;11.00;92.10
43049;DHT22;28673;44.412;11.918;2023-02-15T18:20:43;10.80;92.60
43049;DHT22;28673;44.412;11.918;2023-02-15T18:23:15;10.70;92.50
43049;DHT22;28673;44.412;11.918;2023-02-15T18:25:41;10.60;92.90
43049;DHT22;28673;44.412;11.918;2023-02-15T18:28:08;10.50;93.20
43049;DHT22;28673;44.412;11.918;2023-02-15T18:30:55;10.50;93.70
43049;DHT22;28673;44.412;11.918;2023-02-15T18:33:34;10.50;93.60
43049;DHT22;28673;44.412;11.918;2023-02-15T18:36:03;10.40;93.70
43049;DHT22;28673;44.412;11.918;2023-02-15T18:38:34;10.30;93.80
43049;DHT22;28673;44.412;11.918;2023-02-15T18:44:08;10.20;94.30
43049;DHT22;28673;44.412;11.918;2023-02-15T18:46:35;10.20;94.70
43049;DHT22;28673;44.412;11.918;2023-02-15T18:49:02;10.10;94.50
43049;DHT22;28673;44.412;11.918;2023-02-15T18:54:31;10.00;94.50
43049;DHT22;28673;44.412;11.918;2023-02-15T18:56:59;10.00;94.70
43049;DHT22;28673;44.412;11.918;2023-02-15T18:59:27;9.90;94.60
43049;DHT22;28673;44.412;11.918;2023-02-15T19:02:13;9.90;94.60
43049;DHT22;28673;44.412;11.918;2023-02-15T19:04:39;9.80;94.70
43049;DHT22;28673;44.412;11.918;2023-02-15T19:07:13;9.80;94.80
43049;DHT22;28673;44.412;11.918;2023-02-15T19:09:40;9.80;94.90
43049;DHT22;28673;44.412;11.918;2023-02-15T19:12:26;9.70;94.90
43049;DHT22;28673;44.412;11.918;2023-02-15T19:15:22;9.70;95.20
43049;DHT22;28673;44.412;11.918;2023-02-15T19:17:48;9.60;95.10
43049;DHT22;28673;44.412;11.918;2023-02-15T19:20:24;9.50;95.10
43049;DHT22;28673;44.412;11.918;2023-02-15T19:22:52;9.50;95.20
43049;DHT22;28673;44.412;11.918;2023-02-15T19:25:30;9.40;95.30
43049;DHT22;28673;44.412;11.918;2023-02-15T19:28:26;9.40;95.40
43049;DHT22;28673;44.412;11.918;2023-02-15T19:33:39;9.30;95.50
43049;DHT22;28673;44.412;11.918;2023-02-15T19:36:09;9.20;95.60
43049;DHT22;28673;44.412;11.918;2023-02-15T19:38:56;9.10;95.70
43049;DHT22;28673;44.412;11.918;2023-02-15T19:41:28;9.10;95.70
43049;DHT22;28673;44.412;11.918;2023-02-15T19:43:55;9.00;95.90
43049;DHT22;28673;44.412;11.918;2023-02-15T19:46:22;9.00;96.00
43049;DHT22;28673;44.412;11.918;2023-02-15T19:49:07;8.90;96.00
43049;DHT22;28673;44.412;11.918;2023-02-15T19:51:34;8.90;96.30
43049;DHT22;28673;44.412;11.918;2023-02-15T19:54:01;8.90;96.20
43049;DHT22;28673;44.412;11.918;2023-02-15T19:56:27;8.80;96.30
43049;DHT22;28673;44.412;11.918;2023-02-15T19:58:53;8.70;96.30
43049;DHT22;28673;44.412;11.918;2023-02-15T20:01:37;8.70;96.40
43049;DHT22;28673;44.412;11.918;2023-02-15T20:04:23;8.60;96.50
43049;DHT22;28673;44.412;11.918;2023-02-15T20:07:25;8.60;96.70
43049;DHT22;28673;44.412;11.918;2023-02-15T20:09:51;8.50;96.60
43049;DHT22;28673;44.412;11.918;2023-02-15T20:12:55;8.50;96.60
43049;DHT22;28673;44.412;11.918;2023-02-15T20:15:40;8.50;96.80
43049;DHT22;28673;44.412;11.918;2023-02-15T20:18:07;8.40;96.70
43049;DHT22;28673;44.412;11.918;2023-02-15T20:23:05;8.30;96.90
43049;DHT22;28673;44.412;11.918;2023-02-15T20:25:31;8.30;96.90
43049;DHT22;28673;44.412;11.918;2023-02-15T20:27:59;8.20;97.00
43049;DHT22;28673;44.412;11.918;2023-02-15T20:30:28;8.20;97.10
43049;DHT22;28673;44.412;11.918;2023-02-15T20:32:54;8.10;97.20
43049;DHT22;28673;44.412;11.918;2023-02-15T20:35:22;8.10;97.30
43049;DHT22;28673;44.412;11.918;2023-02-15T20:37:54;8.10;97.40
43049;DHT22;28673;44.412;11.918;2023-02-15T20:40:24;8.00;97.40
43049;DHT22;28673;44.412;11.918;2023-02-15T20:42:50;8.00;97.50
43049;DHT22;28673;44.412;11.918;2023-02-15T20:45:22;8.00;97.50
43049;DHT22;28673;44.412;11.918;2023-02-15T20:47:50;7.90;97.80
43049;DHT22;28673;44.412;11.918;2023-02-15T20:50:21;7.90;97.70
43049;DHT22;28673;44.412;11.918;2023-02-15T20:52:49;7.90;97.80
43049;DHT22;28673;44.412;11.918;2023-02-15T20:55:21;7.80;97.80
43049;DHT22;28673;44.412;11.918;2023-02-15T20:57:47;7.80;97.90
43049;DHT22;28673;44.412;11.918;2023-02-15T21:00:19;7.80;97.90
43049;DHT22;28673;44.412;11.918;2023-02-15T21:02:45;7.70;98.00
43049;DHT22;28673;44.412;11.918;2023-02-15T21:05:20;7.70;98.40
43049;DHT22;28673;44.412;11.918;2023-02-15T21:07:48;7.60;98.00
43049;DHT22;28673;44.412;11.918;2023-02-15T21:10:16;7.60;98.00
43049;DHT22;28673;44.412;11.918;2023-02-15T21:12:43;7.60;98.20
43049;DHT22;28673;44.412;11.918;2023-02-15T21:17:52;7.50;98.40
43049;DHT22;28673;44.412;11.918;2023-02-15T21:20:19;7.50;98.30
43049;DHT22;28673;44.412;11.918;2023-02-15T21:22:45;7.40;98.40
43049;DHT22;28673;44.412;11.918;2023-02-15T21:25:14;7.40;98.40
43049;DHT22;28673;44.412;11.918;2023-02-15T21:27:40;7.40;98.50
43049;DHT22;28673;44.412;11.918;2023-02-15T21:30:14;7.30;98.50
43049;DHT22;28673;44.412;11.918;2023-02-15T21:32:40;7.30;98.60
43049;DHT22;28673;44.412;11.918;2023-02-15T21:35:10;7.30;98.60
43049;DHT22;28673;44.412;11.918;2023-02-15T21:37:37;7.20;98.60
43049;DHT22;28673;44.412;11.918;2023-02-15T21:42:37;7.10;98.70
43049;DHT22;28673;44.412;11.918;2023-02-15T21:45:22;7.10;98.70
43049;DHT22;28673;44.412;11.918;2023-02-15T21:48:06;7.10;98.80
43049;DHT22;28673;44.412;11.918;2023-02-15T21:50:34;7.00;98.80